Mount Rainier Natl Park, Washington
Current Conditions -  °F | °C
As of 10:58 AM on Saturday 25 Oct 2014 (Local Time) from KTCM Reporting Station
Broken Clouds Broken Clouds  
Wind Chill: 53°   Ceiling: 9500
Heat Index: 53°   Visibility: 10mi
Dew Point: 53°   Wind: 5mph
Humidity: 100%   Direction: 20°NNE
Pressure: 29.43"   Gusts: NA
Location:  46.87°N, 121.72°W
Report Text: KTCM 251758Z AUTO 02004KT 10SM BKN095 12/12 A2943 RMK AO2 PRESFR SLP970 60002 T01190119 10119 20070 57047 $
Loading
Personal Weather Stations






























Interactive Weather Map
Tropical Storm Tracking
New forecast layout! Learn more

10-Day Weather Forecast

Advertisements
Track Severe Weather on mobile